Time;durP1;ratioP1;P1;durP2;ratioP2;P2;SDS_P1;SDS_P2;PMS_P1;PMS_P2;Temp;Humidity;BMP_temperature;BMP_pressure;BME280_temperature;BME280_humidity;BME280_pressure;Samples;Min_cycle;Max_cycle;Signal;HPM_P1;HPM_P2
2022/03/25 00:01:17;;;;;;;40.10;23.02;;;;;;;5.38;56.36;101678.69;5074751;28;20468;-64
2022/03/25 00:03:42;;;;;;;38.50;20.70;;;;;;;5.34;56.29;101676.88;5073252;28;20086;-65
2022/03/25 00:06:09;;;;;;;41.25;21.83;;;;;;;5.28;56.58;101680.25;5074939;28;20116;-64
2022/03/25 00:08:34;;;;;;;33.88;19.17;;;;;;;5.30;56.31;101677.66;5074715;28;20112;-63
2022/03/25 00:11:00;;;;;;;44.08;23.55;;;;;;;5.31;56.24;101682.94;5074762;28;20120;-64
2022/03/25 00:13:26;;;;;;;33.78;19.77;;;;;;;5.27;56.20;101677.63;5074584;28;20032;-64
2022/03/25 00:15:51;;;;;;;34.25;19.63;;;;;;;5.25;55.86;101676.72;5073320;28;20028;-64
2022/03/25 00:18:17;;;;;;;34.08;18.45;;;;;;;5.22;56.19;101677.50;5074306;28;20438;-64
2022/03/25 00:20:44;;;;;;;38.03;20.90;;;;;;;5.22;55.99;101674.03;5074379;28;20036;-64
2022/03/25 00:23:10;;;;;;;35.83;20.67;;;;;;;5.21;56.22;101667.06;5074209;28;20086;-64
2022/03/25 00:25:35;;;;;;;32.08;18.02;;;;;;;5.17;56.14;101673.94;5072833;28;20036;-64
2022/03/25 00:28:01;;;;;;;30.80;17.55;;;;;;;5.18;56.26;101668.75;5074205;28;20042;-64
2022/03/25 00:30:27;;;;;;;33.67;19.35;;;;;;;5.13;56.07;101670.38;5074146;28;20056;-64
2022/03/25 00:32:52;;;;;;;32.95;18.85;;;;;;;5.15;56.16;101673.03;5074050;28;20039;-64
2022/03/25 00:35:18;;;;;;;36.17;19.40;;;;;;;5.12;56.00;101667.75;5074629;28;20032;-64
2022/03/25 00:37:44;;;;;;;28.23;17.17;;;;;;;5.12;55.77;101663.41;5072872;28;20043;-64
2022/03/25 00:40:10;;;;;;;31.75;18.98;;;;;;;5.09;56.23;101663.34;5072926;28;20028;-64
2022/03/25 00:42:36;;;;;;;31.10;16.48;;;;;;;5.10;56.09;101657.28;5072807;28;20025;-64
2022/03/25 00:45:02;;;;;;;30.08;17.67;;;;;;;5.12;55.85;101649.53;5073919;28;20396;-64
2022/03/25 00:47:27;;;;;;;28.50;16.27;;;;;;;5.06;56.18;101650.25;5072729;28;20189;-64
2022/03/25 00:49:53;;;;;;;32.20;17.70;;;;;;;5.07;55.92;101653.78;5073985;28;20123;-64
2022/03/25 00:52:18;;;;;;;26.77;16.27;;;;;;;5.08;56.05;101653.78;5074156;28;20029;-64
2022/03/25 00:54:44;;;;;;;31.42;17.65;;;;;;;5.06;56.04;101657.19;5073693;28;20037;-64
2022/03/25 00:57:10;;;;;;;31.70;18.10;;;;;;;5.00;55.86;101657.97;5073740;28;20540;-64
2022/03/25 00:59:36;;;;;;;31.00;19.40;;;;;;;4.96;55.99;101650.91;5072590;28;20044;-64
2022/03/25 01:02:02;;;;;;;28.27;16.77;;;;;;;4.90;56.35;101656.84;5073816;28;20108;-64
2022/03/25 01:04:29;;;;;;;25.65;15.75;;;;;;;4.91;56.10;101655.16;5072707;28;20044;-64
2022/03/25 01:06:55;;;;;;;29.60;16.13;;;;;;;4.90;56.07;101653.38;5072693;28;20033;-64
2022/03/25 01:09:21;;;;;;;26.45;14.77;;;;;;;4.90;55.91;101658.59;5072489;28;20039;-64
2022/03/25 01:11:47;;;;;;;25.63;14.73;;;;;;;4.89;56.00;101654.22;5072445;28;20024;-64
2022/03/25 01:14:13;;;;;;;28.23;16.75;;;;;;;4.85;56.01;101652.41;5073669;28;20089;-64
2022/03/25 01:16:39;;;;;;;28.52;17.13;;;;;;;4.82;56.25;101647.13;5072276;28;20093;-64
2022/03/25 01:19:05;;;;;;;31.92;17.65;;;;;;;4.76;56.45;101645.28;5073907;28;20028;-64
2022/03/25 01:21:31;;;;;;;32.88;18.70;;;;;;;4.74;56.47;101648.69;5072931;28;20039;-64
2022/03/25 01:23:57;;;;;;;27.25;16.48;;;;;;;4.68;56.66;101649.44;5073639;28;20115;-64
2022/03/25 01:26:24;;;;;;;23.40;14.05;;;;;;;4.62;56.55;101639.75;5072323;28;20036;-64
2022/03/25 01:28:49;;;;;;;29.15;16.45;;;;;;;4.56;56.77;101637.03;5073542;28;20484;-63
2022/03/25 01:31:15;;;;;;;29.95;16.20;;;;;;;4.65;56.76;101634.63;5073463;28;20036;-64
2022/03/25 01:33:41;;;;;;;28.90;15.57;;;;;;;4.68;56.35;101634.69;5072246;28;20036;-64
2022/03/25 01:36:07;;;;;;;30.83;16.08;;;;;;;4.62;56.55;101628.44;5073489;28;20064;-64
2022/03/25 01:38:33;;;;;;;27.45;16.63;;;;;;;4.62;56.65;101633.66;5076227;28;20025;-64
2022/03/25 01:40:59;;;;;;;28.27;15.23;;;;;;;4.62;56.52;101639.75;5076206;28;20051;-64
2022/03/25 01:43:24;;;;;;;27.83;15.25;;;;;;;4.62;56.32;101639.75;5077619;28;20444;-64
2022/03/25 01:45:50;;;;;;;27.73;16.25;;;;;;;4.58;56.60;101637.03;5077283;28;20032;-65
2022/03/25 01:48:19;;;;;;;28.58;15.93;;;;;;;4.49;56.38;101627.31;5077062;28;20032;-64
2022/03/25 01:50:47;;;;;;;24.65;14.20;;;;;;;4.43;56.87;101630.66;5076028;28;20391;-64
2022/03/25 01:53:18;;;;;;;30.02;15.93;;;;;;;4.39;56.86;101633.16;5076059;28;20043;-64
2022/03/25 01:55:56;;;;;;;24.48;14.23;;;;;;;4.35;56.97;101627.00;5075644;28;20025;-65
2022/03/25 01:58:23;;;;;;;29.58;16.15;;;;;;;4.31;56.99;101638.19;5075700;28;20049;-64
2022/03/25 02:00:49;;;;;;;27.50;15.70;;;;;;;4.27;57.13;101635.44;5075804;28;20043;-65
2022/03/25 02:03:16;;;;;;;31.55;18.52;;;;;;;4.26;57.29;101633.69;5059152;28;20495;-64
2022/03/25 02:05:43;;;;;;;32.38;18.08;;;;;;;4.24;57.23;101630.19;5076027;28;20040;-64
2022/03/25 02:08:09;;;;;;;35.67;18.48;;;;;;;4.24;57.41;101624.97;5075652;28;20028;-64
2022/03/25 02:10:35;;;;;;;30.17;16.95;;;;;;;4.24;57.49;101638.00;5075739;28;20123;-64
2022/03/25 02:13:01;;;;;;;31.40;17.48;;;;;;;4.22;57.32;101632.72;5058780;28;20052;-64
2022/03/25 02:15:34;;;;;;;31.25;16.40;;;;;;;4.22;57.39;101637.06;5076100;28;20465;-64
2022/03/25 02:18:05;;;;;;;27.40;15.50;;;;;;;4.23;57.43;101634.50;5075309;28;20090;-63
2022/03/25 02:20:32;;;;;;;31.75;18.23;;;;;;;4.24;57.25;101636.25;5059111;28;20469;-64
2022/03/25 02:22:58;;;;;;;30.95;16.27;;;;;;;4.24;57.11;101636.25;5075394;28;20034;-64
2022/03/25 02:25:26;;;;;;;30.23;14.93;;;;;;;4.24;57.15;101624.97;5075230;28;20086;-64
2022/03/25 02:27:53;;;;;;;31.08;17.17;;;;;;;4.24;57.09;101630.19;5055100;28;20054;-63
2022/03/25 02:30:19;;;;;;;27.52;16.63;;;;;;;4.24;57.20;101643.19;5055269;28;20040;-63
2022/03/25 02:32:44;;;;;;;32.08;15.80;;;;;;;4.19;57.34;101635.28;5056492;28;20033;-63
2022/03/25 02:35:10;;;;;;;26.25;15.57;;;;;;;4.22;57.20;101642.25;5056541;28;20087;-63
2022/03/25 02:37:36;;;;;;;25.10;14.02;;;;;;;4.20;57.21;101622.31;5056346;28;20036;-64
2022/03/25 02:40:01;;;;;;;32.97;17.67;;;;;;;4.22;57.41;101631.84;5056018;28;20064;-64
2022/03/25 02:42:27;;;;;;;35.80;18.15;;;;;;;4.16;57.45;101624.78;5056390;28;20032;-63
2022/03/25 02:44:53;;;;;;;32.28;16.40;;;;;;;4.12;57.48;101625.56;5054977;28;20119;-63
2022/03/25 02:47:19;;;;;;;33.15;17.98;;;;;;;4.07;57.56;101627.16;5055663;28;20119;-63
2022/03/25 02:49:45;;;;;;;34.90;19.17;;;;;;;4.06;58.04;101631.47;5054962;28;20061;-63
2022/03/25 02:52:10;;;;;;;41.83;22.00;;;;;;;4.02;57.87;101627.03;5054868;28;20380;-64
2022/03/25 02:54:36;;;;;;;33.97;19.25;;;;;;;3.99;58.08;101629.59;5056059;28;20123;-64
2022/03/25 02:57:02;;;;;;;35.95;18.52;;;;;;;3.97;57.97;101625.19;5038278;28;20040;-63
2022/03/25 02:59:28;;;;;;;36.15;19.65;;;;;;;3.93;57.91;101622.50;5054690;28;20102;-63
2022/03/25 03:01:53;;;;;;;35.13;19.73;;;;;;;3.85;58.07;101625.75;5054923;28;20049;-63
2022/03/25 03:04:19;;;;;;;36.55;19.20;;;;;;;3.80;58.47;101622.16;5055922;28;20029;-63
2022/03/25 03:06:44;;;;;;;35.25;18.35;;;;;;;3.80;58.52;101619.56;5055644;28;20040;-63
2022/03/25 03:09:10;;;;;;;29.90;16.88;;;;;;;3.78;58.66;101613.41;5055857;28;20115;-63
2022/03/25 03:11:36;;;;;;;29.90;17.23;;;;;;;3.77;58.62;101622.94;5054417;28;20036;-63
2022/03/25 03:14:03;;;;;;;28.65;15.77;;;;;;;3.78;58.40;101616.03;5055520;28;20025;-63
2022/03/25 03:16:29;;;;;;;27.23;15.68;;;;;;;3.75;58.66;101613.34;5037814;28;20057;-63
2022/03/25 03:18:54;;;;;;;33.10;18.35;;;;;;;3.72;58.58;101618.47;5055668;28;20065;-63
2022/03/25 03:21:23;;;;;;;28.20;17.40;;;;;;;3.73;58.67;101617.63;5055679;28;20064;-63
2022/03/25 03:23:51;;;;;;;33.25;19.20;;;;;;;3.72;58.60;101614.16;5054141;28;20129;-63
2022/03/25 03:26:17;;;;;;;34.67;18.70;;;;;;;3.67;58.96;101616.63;5040914;28;20480;-63
2022/03/25 03:28:44;;;;;;;30.85;16.90;;;;;;;3.65;58.98;101613.09;5057893;28;20415;-63
2022/03/25 03:31:09;;;;;;;27.63;16.67;;;;;;;3.63;59.00;101614.81;5074157;28;20119;-63
2022/03/25 03:33:35;;;;;;;38.50;19.98;;;;;;;3.61;59.15;101618.19;5074104;28;20132;-63
2022/03/25 03:36:00;;;;;;;27.35;17.10;;;;;;;3.64;58.89;101615.69;5075640;28;20039;-63
2022/03/25 03:38:26;;;;;;;35.33;18.13;;;;;;;3.65;58.90;101618.31;5075203;28;20491;-63
2022/03/25 03:40:53;;;;;;;30.58;17.67;;;;;;;3.62;58.73;101612.16;5075377;28;20106;-64
2022/03/25 03:43:18;;;;;;;28.23;16.02;;;;;;;3.60;58.88;101614.72;5075180;28;20033;-64
2022/03/25 03:45:44;;;;;;;35.80;18.45;;;;;;;3.63;58.76;101624.28;5075478;28;20491;-64
2022/03/25 03:48:10;;;;;;;33.15;18.20;;;;;;;3.63;58.73;101625.19;5075209;28;20445;-64
2022/03/25 03:50:36;;;;;;;32.58;19.13;;;;;;;3.64;58.86;101615.69;5075157;28;20044;-64
2022/03/25 03:53:01;;;;;;;27.40;15.90;;;;;;;3.63;58.78;101625.19;5074911;28;20384;-64
2022/03/25 03:55:27;;;;;;;32.60;18.75;;;;;;;3.58;58.97;101616.38;5075132;28;20036;-64
2022/03/25 03:57:52;;;;;;;31.85;16.75;;;;;;;3.57;59.11;101619.81;5074293;28;20488;-64
2022/03/25 04:00:18;;;;;;;32.83;17.42;;;;;;;3.58;59.04;101621.56;5074319;28;20099;-64
2022/03/25 04:02:46;;;;;;;30.80;17.33;;;;;;;3.57;58.93;101625.03;5073407;28;20039;-64
2022/03/25 04:05:13;;;;;;;32.95;18.10;;;;;;;3.55;59.01;101616.31;5073398;28;20032;-64
2022/03/25 04:07:43;;;;;;;32.90;17.98;;;;;;;3.52;59.08;101621.44;5073042;28;20048;-64
2022/03/25 04:10:09;;;;;;;30.42;17.15;;;;;;;3.54;59.05;101614.53;5074014;28;20033;-64
2022/03/25 04:12:37;;;;;;;29.95;16.73;;;;;;;3.57;59.08;101616.34;5056692;28;20036;-64
2022/03/25 04:15:09;;;;;;;29.40;16.08;;;;;;;3.60;58.91;101613.84;5073308;28;20076;-64
2022/03/25 04:17:38;;;;;;;22.25;13.60;;;;;;;3.55;59.15;101611.13;5074392;28;20032;-63
2022/03/25 04:20:04;;;;;;;29.50;16.10;;;;;;;3.59;59.06;101606.84;5073025;28;20036;-64
2022/03/25 04:22:29;;;;;;;33.50;18.60;;;;;;;3.61;58.99;101606.06;5074421;28;20379;-64
2022/03/25 04:24:55;;;;;;;33.40;16.05;;;;;;;3.61;59.25;101608.66;5073175;28;20375;-64
2022/03/25 04:27:21;;;;;;;28.15;15.20;;;;;;;3.63;59.26;101608.69;5073091;28;20036;-64
2022/03/25 04:29:46;;;;;;;25.23;15.18;;;;;;;3.66;58.99;101612.25;5074268;28;20423;-64
2022/03/25 04:32:12;;;;;;;32.40;18.02;;;;;;;3.68;59.12;101618.41;5073001;28;20028;-64
2022/03/25 04:34:37;;;;;;;28.65;16.35;;;;;;;3.71;59.01;101622.81;5073984;28;20028;-64
2022/03/25 04:37:03;;;;;;;28.85;16.88;;;;;;;3.69;59.06;101619.28;5073942;28;20097;-63
2022/03/25 04:39:28;;;;;;;33.00;18.20;;;;;;;3.70;59.51;101628.81;5074001;28;20032;-63
2022/03/25 04:41:54;;;;;;;30.27;16.00;;;;;;;3.74;59.33;101629.78;5072778;28;20094;-64
2022/03/25 04:44:19;;;;;;;31.77;17.35;;;;;;;3.78;59.41;101623.81;5074186;28;20078;-64
2022/03/25 04:46:44;;;;;;;34.63;18.17;;;;;;;3.83;59.47;101628.31;5073990;28;20033;-64
2022/03/25 04:49:10;;;;;;;31.85;17.73;;;;;;;3.90;59.18;101617.22;5072781;28;20037;-64
2022/03/25 04:51:35;;;;;;;37.47;19.60;;;;;;;3.99;59.12;101626.06;5073757;28;20032;-64
2022/03/25 04:54:01;;;;;;;39.80;19.77;;;;;;;4.02;59.11;101620.97;5073962;28;20109;-63
2022/03/25 04:56:27;;;;;;;32.00;17.05;;;;;;;4.07;58.86;101612.44;5072424;28;20039;-65
2022/03/25 04:58:52;;;;;;;31.83;18.23;;;;;;;4.17;58.57;101618.75;5073557;28;20048;-64
2022/03/25 05:01:17;;;;;;;37.15;19.63;;;;;;;4.26;58.47;101616.34;5073922;28;20039;-64
2022/03/25 05:03:43;;;;;;;32.67;16.83;;;;;;;4.35;58.16;101619.19;5073758;28;20041;-64
2022/03/25 05:06:08;;;;;;;35.03;17.80;;;;;;;4.42;58.03;101625.41;5074028;28;20044;-64
2022/03/25 05:08:34;;;;;;;35.78;17.55;;;;;;;4.47;57.96;101621.19;5073764;28;20111;-64
2022/03/25 05:10:59;;;;;;;32.25;17.13;;;;;;;4.53;58.19;101610.03;5074030;28;20052;-64
2022/03/25 05:13:25;;;;;;;34.85;18.58;;;;;;;4.56;58.14;101613.59;5074098;28;20059;-64
2022/03/25 05:15:50;;;;;;;34.47;16.95;;;;;;;4.66;57.80;101617.25;5072344;28;20047;-64
2022/03/25 05:18:16;;;;;;;33.17;19.17;;;;;;;4.75;57.63;101611.38;5073435;28;20032;-64
2022/03/25 05:20:42;;;;;;;36.15;18.48;;;;;;;4.75;57.79;101609.69;5073923;28;20089;-64
2022/03/25 05:23:08;;;;;;;36.53;17.90;;;;;;;4.79;57.80;101610.59;5074012;28;20486;-64
2022/03/25 05:25:34;;;;;;;30.63;17.80;;;;;;;4.86;57.40;101599.47;5073603;28;20053;-64
2022/03/25 05:27:59;;;;;;;32.85;17.67;;;;;;;4.87;57.60;101609.06;5073681;28;20037;-63
2022/03/25 05:30:31;;;;;;;34.95;18.70;;;;;;;4.93;57.38;101609.19;5073474;28;20081;-64
2022/03/25 05:32:58;;;;;;;35.88;19.65;;;;;;;4.92;57.43;101612.63;5073475;28;20028;-64
2022/03/25 05:35:27;;;;;;;38.80;19.60;;;;;;;4.87;57.65;101612.53;5072300;28;20039;-64
2022/03/25 05:37:53;;;;;;;35.20;20.70;;;;;;;4.83;57.65;101607.25;5073504;28;20081;-64
2022/03/25 05:40:21;;;;;;;34.17;19.00;;;;;;;4.81;57.87;101604.59;5073395;28;20519;-64
2022/03/25 05:42:48;;;;;;;34.97;19.95;;;;;;;4.80;57.60;101608.03;5055494;28;20503;-63
2022/03/25 05:45:14;;;;;;;32.72;18.20;;;;;;;4.83;57.63;101610.72;5072109;28;20089;-64
2022/03/25 05:47:41;;;;;;;32.15;18.55;;;;;;;4.86;57.30;101615.09;5072064;28;20028;-64
2022/03/25 05:50:08;;;;;;;35.30;19.00;;;;;;;4.87;57.66;101616.88;5072488;28;20121;-64
2022/03/25 05:52:34;;;;;;;29.70;18.05;;;;;;;4.91;57.43;101616.97;5073122;28;20039;-64
2022/03/25 05:55:00;;;;;;;31.73;17.95;;;;;;;5.00;57.32;101611.06;5054488;28;20540;-64
2022/03/25 05:57:26;;;;;;;29.92;17.35;;;;;;;5.09;57.17;101613.84;5055119;28;20025;-64
2022/03/25 05:59:51;;;;;;;32.67;17.15;;;;;;;5.18;57.28;101611.41;5071885;28;20399;-63
2022/03/25 06:02:17;;;;;;;31.92;17.55;;;;;;;5.32;56.77;101606.50;5071761;28;20076;-64
2022/03/25 06:04:42;;;;;;;35.70;17.63;;;;;;;5.40;56.67;101609.25;5073070;28;20090;-64
2022/03/25 06:07:09;;;;;;;30.02;16.90;;;;;;;5.46;56.65;101604.13;5073109;28;20044;-64
2022/03/25 06:09:34;;;;;;;37.85;19.77;;;;;;;5.58;56.50;101612.19;5073303;28;20044;-64
2022/03/25 06:12:00;;;;;;;34.03;19.52;;;;;;;5.64;56.56;101617.53;5073178;28;20048;-64
2022/03/25 06:14:27;;;;;;;35.40;20.92;;;;;;;5.64;56.56;101609.69;5073103;28;20384;-64
2022/03/25 06:16:53;;;;;;;49.38;24.10;;;;;;;5.71;57.08;101618.53;5071694;28;20033;-64
2022/03/25 06:19:18;;;;;;;53.70;26.70;;;;;;;5.74;57.03;101604.63;5073044;28;20029;-64
2022/03/25 06:21:44;;;;;;;39.90;21.33;;;;;;;5.80;56.70;101615.19;5073856;28;20037;-65
2022/03/25 06:24:10;;;;;;;37.30;20.45;;;;;;;5.90;56.75;101620.59;5075374;28;20060;-63
2022/03/25 06:26:36;;;;;;;37.72;20.60;;;;;;;5.98;57.11;101615.53;5076485;28;20033;-65
2022/03/25 06:29:02;;;;;;;38.80;20.83;;;;;;;6.11;56.84;101614.03;5076514;28;20028;-65
2022/03/25 06:31:28;;;;;;;37.15;21.92;;;;;;;6.08;57.43;101627.00;5075627;28;20043;-63
2022/03/25 06:33:53;;;;;;;44.45;21.92;;;;;;;6.22;56.86;101617.66;5076311;28;20024;-64
2022/03/25 06:36:19;;;;;;;42.28;22.23;;;;;;;6.34;56.80;101622.19;5076756;28;20058;-64
2022/03/25 06:38:44;;;;;;;41.65;23.23;;;;;;;6.49;56.55;101622.44;5076558;28;20033;-63
2022/03/25 06:41:10;;;;;;;37.15;20.63;;;;;;;6.61;56.66;101626.94;5076260;28;20037;-64
2022/03/25 06:43:36;;;;;;;42.58;21.65;;;;;;;6.78;56.31;101620.25;5074740;28;20036;-64
2022/03/25 06:46:04;;;;;;;44.72;24.30;;;;;;;6.83;56.37;101618.56;5074955;28;20033;-64
2022/03/25 06:48:31;;;;;;;40.30;23.13;;;;;;;7.02;56.04;101611.84;5058536;28;20472;-63
2022/03/25 06:50:58;;;;;;;46.13;24.63;;;;;;;7.13;56.11;101620.69;5074851;28;20039;-64
2022/03/25 06:53:24;;;;;;;46.28;24.85;;;;;;;7.16;56.30;101612.88;5058318;28;20044;-64
2022/03/25 06:55:49;;;;;;;48.38;23.75;;;;;;;7.20;56.28;101607.69;5076003;28;20106;-64
2022/03/25 06:58:15;;;;;;;47.38;24.58;;;;;;;7.38;56.38;101607.88;5076224;28;20106;-64
2022/03/25 07:00:41;;;;;;;47.22;26.38;;;;;;;7.57;55.72;101608.97;5074356;28;20032;-65
2022/03/25 07:03:07;;;;;;;41.42;23.67;;;;;;;7.74;55.43;101609.13;5071082;28;20382;-64
2022/03/25 07:05:33;;;;;;;48.75;25.98;;;;;;;7.85;55.66;101610.09;5062471;28;20070;-63
2022/03/25 07:07:58;;;;;;;47.60;25.02;;;;;;;8.07;55.25;101612.06;5085725;28;20036;-64
2022/03/25 07:10:26;;;;;;;46.50;23.17;;;;;;;8.19;55.07;101610.41;5094562;28;20126;-64
2022/03/25 07:12:53;;;;;;;54.40;28.02;;;;;;;8.27;55.55;101613.97;5078728;28;20021;-64
2022/03/25 07:15:23;;;;;;;52.15;27.60;;;;;;;8.45;55.31;101613.22;5074298;28;20029;-63
2022/03/25 07:17:49;;;;;;;56.45;28.30;;;;;;;8.60;55.27;101624.69;5074815;28;20400;-66
2022/03/25 07:20:16;;;;;;;51.92;28.42;;;;;;;8.66;55.38;101622.97;5074022;28;20471;-64
2022/03/25 07:22:47;;;;;;;57.72;30.30;;;;;;;8.82;55.32;101619.59;5074274;28;20066;-64
2022/03/25 07:25:14;;;;;;;58.22;29.50;;;;;;;9.09;54.48;101614.44;5073927;28;20059;-65
2022/03/25 07:27:41;;;;;;;57.63;30.60;;;;;;;9.09;55.00;101619.69;5073848;28;20021;-65
2022/03/25 07:30:07;;;;;;;58.72;29.77;;;;;;;9.30;54.82;101613.66;5073457;28;20067;-65
2022/03/25 07:32:33;;;;;;;59.85;31.35;;;;;;;9.38;54.81;101617.19;5073367;28;20047;-65
2022/03/25 07:34:58;;;;;;;60.03;31.52;;;;;;;9.49;54.73;101621.56;5074271;28;20032;-64
2022/03/25 07:37:24;;;;;;;63.03;32.55;;;;;;;9.57;54.61;101625.97;5056903;28;20048;-67
2022/03/25 07:39:49;;;;;;;59.08;31.17;;;;;;;9.72;54.23;101613.75;5074000;28;20072;-65
2022/03/25 07:42:15;;;;;;;61.15;29.88;;;;;;;9.86;53.95;101622.53;5078698;28;20024;-65
2022/03/25 07:44:41;;;;;;;61.20;31.15;;;;;;;9.93;53.73;101616.38;5074661;28;20028;-66
2022/03/25 07:47:08;;;;;;;62.33;32.25;;;;;;;10.04;53.23;101622.53;5074321;28;20039;-66
2022/03/25 07:49:35;;;;;;;60.15;32.08;;;;;;;10.02;53.21;101621.66;5057202;28;20032;-66
2022/03/25 07:52:02;;;;;;;59.20;30.98;;;;;;;10.07;52.89;101614.66;5065241;28;20036;-66
2022/03/25 07:54:28;;;;;;;54.08;29.73;;;;;;;10.41;52.30;101608.53;5050853;28;20037;-66
2022/03/25 07:56:57;;;;;;;54.22;29.42;;;;;;;10.45;52.06;101626.03;5070587;28;20082;-65
2022/03/25 07:59:23;;;;;;;58.40;29.98;;;;;;;10.51;51.99;101623.41;5073435;28;20063;-65
2022/03/25 08:01:48;;;;;;;60.25;31.02;;;;;;;10.64;51.73;101627.75;5056480;28;20041;-66
2022/03/25 08:04:14;;;;;;;58.33;29.13;;;;;;;10.57;51.53;101639.16;5074571;28;20024;-65
2022/03/25 08:06:41;;;;;;;52.97;28.48;;;;;;;10.63;51.47;101619.91;5073927;28;20488;-66
2022/03/25 08:09:06;;;;;;;52.10;29.27;;;;;;;10.67;51.38;101629.53;5073143;28;20028;-65
2022/03/25 08:11:32;;;;;;;53.03;28.45;;;;;;;10.67;51.38;101627.75;5074241;28;20384;-65
2022/03/25 08:13:57;;;;;;;53.20;27.23;;;;;;;10.77;51.21;101618.09;5074493;28;20032;-66
2022/03/25 08:16:23;;;;;;;52.72;27.35;;;;;;;10.82;50.92;101618.97;5074210;28;20140;-65
2022/03/25 08:18:48;;;;;;;42.50;23.55;;;;;;;11.09;50.27;101611.00;5074266;28;20476;-66
2022/03/25 08:21:14;;;;;;;44.60;24.70;;;;;;;11.21;50.24;101623.22;5074602;28;20071;-65
2022/03/25 08:29:09;;;;;;;48.60;24.80;;;;;;;11.42;49.60;101624.84;5074364;28;20040;-65
2022/03/25 08:31:35;;;;;;;43.22;23.88;;;;;;;11.51;49.26;101624.78;5073051;28;20036;-65
2022/03/25 08:34:04;;;;;;;42.45;23.20;;;;;;;11.60;48.36;101635.25;5073921;28;20094;-64
2022/03/25 08:36:29;;;;;;;40.33;21.90;;;;;;;11.72;48.20;101625.53;5072847;28;20056;-64
2022/03/25 08:38:55;;;;;;;36.78;21.13;;;;;;;11.75;47.82;101633.44;5073803;28;20063;-65
2022/03/25 08:41:21;;;;;;;35.60;19.52;;;;;;;11.82;47.41;101629.88;5072566;28;20060;-64
2022/03/25 08:43:49;;;;;;;35.47;19.58;;;;;;;11.98;47.30;101623.66;5072521;28;20032;-65
2022/03/25 08:46:15;;;;;;;32.42;18.48;;;;;;;12.06;46.92;101628.84;5073243;28;20036;-65
2022/03/25 08:48:41;;;;;;;34.47;18.00;;;;;;;12.20;46.43;101628.72;5073375;28;20028;-65
2022/03/25 08:51:06;;;;;;;33.63;16.52;;;;;;;12.27;45.41;101638.34;5073767;28;20119;-65
2022/03/25 08:53:32;;;;;;;27.08;15.27;;;;;;;12.42;45.50;101621.53;5073596;28;20036;-65
2022/03/25 08:55:57;;;;;;;25.60;14.00;;;;;;;12.25;44.52;101626.94;5073889;28;20028;-66
2022/03/25 08:58:23;;;;;;;27.95;15.00;;;;;;;12.29;44.38;101621.63;5073329;28;20072;-65
2022/03/25 09:00:48;;;;;;;26.20;15.85;;;;;;;12.38;44.54;101630.34;5073664;28;20028;-65
2022/03/25 09:03:14;;;;;;;32.70;16.77;;;;;;;12.48;44.71;101624.06;5073549;28;20029;-65
2022/03/25 09:05:39;;;;;;;29.17;15.10;;;;;;;12.63;44.17;101617.78;5073697;28;20089;-65
2022/03/25 09:08:06;;;;;;;29.13;14.27;;;;;;;12.78;44.18;101615.84;5073644;28;20054;-65
2022/03/25 09:10:32;;;;;;;27.98;15.27;;;;;;;12.88;43.83;101608.69;5072292;28;20029;-66
2022/03/25 09:12:58;;;;;;;30.55;15.40;;;;;;;12.97;43.85;101615.66;5055549;28;20028;-66
2022/03/25 09:15:25;;;;;;;28.73;15.63;;;;;;;12.94;43.92;101621.84;5073555;28;20036;-65
2022/03/25 09:17:50;;;;;;;29.60;15.52;;;;;;;13.00;44.38;101620.88;5072120;28;20056;-66
2022/03/25 09:20:16;;;;;;;27.50;14.68;;;;;;;13.15;44.30;101614.53;5073217;28;20479;-65
2022/03/25 09:22:43;;;;;;;32.58;16.92;;;;;;;13.12;44.47;101604.03;5055528;28;20039;-66
2022/03/25 09:25:09;;;;;;;33.55;17.17;;;;;;;13.16;44.70;101608.38;5071768;28;20036;-65
2022/03/25 09:27:36;;;;;;;36.90;18.80;;;;;;;13.16;45.14;101605.72;5055264;28;20059;-66
2022/03/25 09:30:06;;;;;;;30.88;17.10;;;;;;;13.22;45.20;101605.66;5071556;28;20399;-66
2022/03/25 09:32:32;;;;;;;28.80;15.88;;;;;;;13.52;44.57;101600.00;5061412;28;20029;-65
2022/03/25 09:35:09;;;;;;;28.60;16.00;;;;;;;13.54;45.03;101603.47;5071505;28;20122;-66
2022/03/25 09:37:38;;;;;;;28.45;16.55;;;;;;;13.64;44.92;101609.47;5081302;28;20028;-66
2022/03/25 09:40:07;;;;;;;29.38;17.27;;;;;;;13.58;44.99;101609.59;5070285;28;20028;-66
2022/03/25 09:42:34;;;;;;;30.15;16.45;;;;;;;13.73;44.54;101604.09;5090559;28;20029;-66
2022/03/25 09:45:03;;;;;;;27.60;16.58;;;;;;;13.66;44.83;101613.00;5068913;28;20518;-66
2022/03/25 09:47:30;;;;;;;30.23;17.42;;;;;;;13.61;44.81;101619.25;5070462;28;20040;-66
2022/03/25 09:49:56;;;;;;;32.40;18.35;;;;;;;13.83;44.77;101625.94;5070438;28;20052;-67
2022/03/25 09:52:23;;;;;;;31.85;18.55;;;;;;;13.90;44.52;101622.31;5070159;28;20067;-66
2022/03/25 09:54:49;;;;;;;32.53;18.88;;;;;;;13.91;44.35;101618.75;5070283;28;20115;-66
2022/03/25 09:57:14;;;;;;;31.52;17.48;;;;;;;14.07;44.05;101629.09;5072601;28;20436;-67
2022/03/25 09:59:40;;;;;;;34.55;19.05;;;;;;;14.02;44.05;101616.81;5057388;28;20032;-66
2022/03/25 10:02:06;;;;;;;30.25;17.77;;;;;;;14.21;43.93;101605.97;5075443;28;20043;-66
2022/03/25 10:04:37;;;;;;;34.08;18.23;;;;;;;14.36;43.63;101595.09;5074252;28;20388;-66
2022/03/25 10:07:23;;;;;;;33.60;19.25;;;;;;;14.46;43.39;101599.31;5075341;28;20029;-66
2022/03/25 10:10:08;;;;;;;33.05;19.20;;;;;;;14.50;43.37;101598.41;5071164;28;20502;-66
2022/03/25 10:12:34;;;;;;;33.33;18.98;;;;;;;14.65;43.24;101601.66;5066237;28;20044;-66
2022/03/25 10:15:20;;;;;;;34.92;19.85;;;;;;;14.72;43.00;101595.34;5073796;28;20035;-66
2022/03/25 10:17:56;;;;;;;28.95;17.52;;;;;;;14.84;42.90;101612.75;5071130;28;20105;-66
2022/03/25 10:20:33;;;;;;;30.98;17.02;;;;;;;14.98;42.56;101608.94;5074608;28;20107;-66
2022/03/25 10:23:06;;;;;;;32.28;19.45;;;;;;;14.87;42.69;101618.84;5073073;28;20033;-66
2022/03/25 10:25:42;;;;;;;34.30;18.35;;;;;;;15.02;42.60;101607.97;5073622;28;20078;-66
2022/03/25 10:28:40;;;;;;;32.38;20.10;;;;;;;14.81;42.71;101619.00;5073784;28;20048;-65
2022/03/25 10:31:19;;;;;;;31.30;19.00;;;;;;;14.86;42.56;101600.38;5060628;28;20040;-65
2022/03/25 10:33:54;;;;;;;32.97;18.48;;;;;;;14.94;42.64;101594.00;5072434;28;20040;-66
2022/03/25 10:36:22;;;;;;;29.77;17.27;;;;;;;15.09;42.50;101591.97;5073234;28;20044;-66
2022/03/25 10:39:11;;;;;;;29.85;17.90;;;;;;;15.10;42.21;101593.69;5071656;28;20087;-66
2022/03/25 10:41:39;;;;;;;27.40;15.73;;;;;;;15.36;42.09;101587.81;5073723;28;20159;-66
2022/03/25 10:44:05;;;;;;;28.23;15.38;;;;;;;15.45;42.06;101596.44;5052208;28;20029;-66
2022/03/25 10:46:35;;;;;;;30.55;17.05;;;;;;;15.43;42.03;101595.59;5056660;28;20033;-67
2022/03/25 10:49:05;;;;;;;29.25;16.35;;;;;;;15.40;41.80;101590.41;5073096;28;20029;-68
2022/03/25 10:51:31;;;;;;;27.42;16.70;;;;;;;15.51;41.76;101580.41;5071044;28;20038;-67
2022/03/25 10:54:03;;;;;;;32.38;17.15;;;;;;;15.66;41.71;101562.44;5056269;28;20086;-66
2022/03/25 10:56:42;;;;;;;29.63;15.43;;;;;;;15.66;41.32;101565.09;5064931;28;20051;-67
2022/03/25 10:59:24;;;;;;;26.42;14.55;;;;;;;15.70;41.26;101562.34;5089138;28;20048;-67
2022/03/25 11:01:52;;;;;;;26.77;15.15;;;;;;;15.83;41.32;101562.91;5067817;28;20408;-69
2022/03/25 11:04:18;;;;;;;26.85;14.07;;;;;;;15.89;41.10;101562.75;5065954;28;20036;-67
2022/03/25 11:06:46;;;;;;;23.42;13.50;;;;;;;15.89;40.64;101556.59;5073718;28;20046;-66
2022/03/25 11:09:13;;;;;;;25.95;14.40;;;;;;;15.89;40.72;101560.13;5072369;28;20028;-67
2022/03/25 11:11:44;;;;;;;24.98;15.95;;;;;;;15.82;40.63;101558.53;5067446;28;20043;-67
2022/03/25 11:14:11;;;;;;;31.02;15.73;;;;;;;15.93;40.49;101560.91;5062505;28;20115;-66
2022/03/25 11:16:43;;;;;;;26.13;13.63;;;;;;;16.10;40.30;101544.56;5057143;28;20047;-66
2022/03/25 11:19:10;;;;;;;23.55;13.80;;;;;;;16.16;40.29;101549.72;5056030;28;20036;-66